createdAt,value
2017-07-21T00:00:43.011Z,2.60
2017-07-21T00:03:09.668Z,2.60
2017-07-21T00:05:36.488Z,2.10
2017-07-21T00:08:03.146Z,2.23
2017-07-21T00:10:29.804Z,2.23
2017-07-21T00:12:56.436Z,2.13
2017-07-21T00:15:23.079Z,2.00
2017-07-21T00:17:49.776Z,2.27
2017-07-21T00:20:16.435Z,1.97
2017-07-21T00:22:43.103Z,3.20
2017-07-21T00:25:09.795Z,2.30
2017-07-21T00:27:36.449Z,2.37
2017-07-21T00:30:03.079Z,2.20
2017-07-21T00:32:29.731Z,2.43
2017-07-21T00:34:56.369Z,1.90
2017-07-21T00:37:23.035Z,2.53
2017-07-21T00:39:49.725Z,2.10
2017-07-21T00:42:16.398Z,2.83
2017-07-21T00:44:43.063Z,2.50
2017-07-21T00:47:09.739Z,2.20
2017-07-21T00:49:36.394Z,1.97
2017-07-21T00:52:03.027Z,3.00
2017-07-21T00:54:29.685Z,2.30
2017-07-21T00:56:56.339Z,2.53
2017-07-21T00:59:22.988Z,2.30
2017-07-21T01:01:49.635Z,2.90
2017-07-21T01:04:16.288Z,2.70
2017-07-21T01:06:42.945Z,2.17
2017-07-21T01:09:09.634Z,2.27
2017-07-21T01:11:36.286Z,2.37
2017-07-21T01:14:02.974Z,2.80
2017-07-21T01:16:29.650Z,2.67
2017-07-21T01:18:56.449Z,2.80
2017-07-21T01:21:23.119Z,2.47
2017-07-21T01:23:49.823Z,2.30
2017-07-21T01:26:16.483Z,2.70
2017-07-21T01:28:43.136Z,3.67
2017-07-21T01:31:09.796Z,2.33
2017-07-21T01:33:36.442Z,1.90
2017-07-21T01:36:03.110Z,2.40
2017-07-21T01:38:29.793Z,2.13
2017-07-21T01:40:56.460Z,2.15
2017-07-21T01:43:23.108Z,2.27
2017-07-21T01:45:49.781Z,2.50
2017-07-21T01:48:16.431Z,2.27
2017-07-21T01:50:43.100Z,2.70
2017-07-21T01:53:09.804Z,2.97
2017-07-21T01:55:36.452Z,1.93
2017-07-21T01:58:03.098Z,2.47
2017-07-21T02:00:29.759Z,1.93
2017-07-21T02:02:56.415Z,2.70
2017-07-21T02:05:23.072Z,3.03
2017-07-21T02:07:49.756Z,2.78
2017-07-21T02:10:16.419Z,1.90
2017-07-21T02:12:43.060Z,3.00
2017-07-21T02:15:09.753Z,3.20
2017-07-21T02:17:36.412Z,2.10
2017-07-21T02:20:03.067Z,2.47
2017-07-21T02:22:29.739Z,2.73
2017-07-21T02:24:56.388Z,2.27
2017-07-21T02:27:23.028Z,2.47
2017-07-21T02:29:49.710Z,2.80
2017-07-21T02:32:16.365Z,2.80
2017-07-21T02:34:43.035Z,2.00
2017-07-21T02:37:09.734Z,2.55
2017-07-21T02:39:36.379Z,2.73
2017-07-21T02:42:03.072Z,2.92
2017-07-21T02:44:29.765Z,2.45
2017-07-21T02:46:56.433Z,3.78
2017-07-21T02:49:23.076Z,2.40
2017-07-21T02:51:49.788Z,2.40
2017-07-21T02:54:16.443Z,2.30
2017-07-21T02:56:43.093Z,2.08
2017-07-21T02:59:09.771Z,3.10
2017-07-21T03:01:36.462Z,2.25
2017-07-21T03:04:03.119Z,2.07
2017-07-21T03:06:29.792Z,2.40
2017-07-21T03:08:56.474Z,2.75
2017-07-21T03:11:23.146Z,2.50
2017-07-21T03:13:49.858Z,2.47
2017-07-21T03:16:16.512Z,2.28
2017-07-21T03:18:43.168Z,2.42
2017-07-21T03:21:09.853Z,3.60
2017-07-21T03:23:36.520Z,2.60
2017-07-21T03:26:03.161Z,2.17
2017-07-21T03:28:29.846Z,2.20
2017-07-21T03:30:56.521Z,2.65
2017-07-21T03:33:23.168Z,3.20
2017-07-21T03:35:49.863Z,3.10
2017-07-21T03:38:16.524Z,2.30
2017-07-21T03:40:43.202Z,2.92
2017-07-21T03:43:09.893Z,2.45
2017-07-21T03:45:36.539Z,3.23
2017-07-21T03:48:03.198Z,2.40
2017-07-21T03:50:29.872Z,2.97
2017-07-21T03:52:56.535Z,2.20
2017-07-21T03:55:23.185Z,2.47
2017-07-21T03:57:49.883Z,2.50
2017-07-21T04:00:16.544Z,2.60
2017-07-21T04:02:43.271Z,3.80
2017-07-21T04:05:09.956Z,3.00
2017-07-21T04:07:36.625Z,3.33
2017-07-21T04:10:03.280Z,2.87
2017-07-21T04:12:29.988Z,2.70
2017-07-21T04:14:56.681Z,2.83
2017-07-21T04:17:23.341Z,2.37
2017-07-21T04:19:50.034Z,3.12
2017-07-21T04:22:16.679Z,2.33
2017-07-21T04:24:43.337Z,2.97
2017-07-21T04:27:10.035Z,2.90
2017-07-21T04:29:36.698Z,2.55
2017-07-21T04:32:03.353Z,2.70
2017-07-21T04:34:30.011Z,2.60
2017-07-21T04:36:56.696Z,3.80
2017-07-21T04:39:23.354Z,2.90
2017-07-21T04:41:50.036Z,3.15
2017-07-21T04:44:16.687Z,2.45
2017-07-21T04:46:43.374Z,2.78
2017-07-21T04:49:10.094Z,3.65
2017-07-21T04:51:36.783Z,3.25
2017-07-21T04:54:03.450Z,3.40
2017-07-21T04:56:30.144Z,3.50
2017-07-21T04:58:56.814Z,2.47
2017-07-21T05:01:23.495Z,3.00
2017-07-21T05:03:50.186Z,2.78
2017-07-21T05:06:16.846Z,3.12
2017-07-21T05:08:43.488Z,2.37
2017-07-21T05:11:10.173Z,3.30
2017-07-21T05:13:36.837Z,2.75
2017-07-21T05:16:03.523Z,3.30
2017-07-21T05:18:30.195Z,5.40
2017-07-21T05:20:56.867Z,2.20
2017-07-21T05:23:23.538Z,2.60
2017-07-21T05:25:50.242Z,2.72
2017-07-21T05:28:16.897Z,3.00
2017-07-21T05:30:43.557Z,2.77
2017-07-21T05:33:10.213Z,2.83
2017-07-21T05:35:36.856Z,2.87
2017-07-21T05:38:03.510Z,2.53
2017-07-21T05:40:30.176Z,3.03
2017-07-21T05:42:56.835Z,2.40
2017-07-21T05:45:23.511Z,3.20
2017-07-21T05:47:50.226Z,3.20
2017-07-21T05:50:16.881Z,2.50
2017-07-21T05:52:43.568Z,2.33
2017-07-21T05:55:10.259Z,2.63
2017-07-21T05:57:36.913Z,3.20
2017-07-21T06:00:03.572Z,2.80
2017-07-21T06:02:30.276Z,2.90
2017-07-21T06:04:56.952Z,2.70
2017-07-21T06:07:23.611Z,2.97
2017-07-21T06:09:50.288Z,2.70
2017-07-21T06:12:16.920Z,2.63
2017-07-21T06:14:43.562Z,2.80
2017-07-21T06:17:10.238Z,3.00
2017-07-21T06:19:36.896Z,2.47
2017-07-21T06:22:03.604Z,3.13
2017-07-21T06:24:30.267Z,2.47
2017-07-21T06:26:56.918Z,3.30
2017-07-21T06:29:23.579Z,2.70
2017-07-21T06:31:50.221Z,2.47
2017-07-21T06:34:16.904Z,3.90
2017-07-21T06:36:43.582Z,3.10
2017-07-21T06:39:10.234Z,3.20
2017-07-21T06:41:36.898Z,3.20
2017-07-21T06:44:03.554Z,3.30
2017-07-21T06:46:30.218Z,3.70
2017-07-21T06:48:56.890Z,2.57
2017-07-21T06:51:23.591Z,2.60
2017-07-21T06:53:50.288Z,3.23
2017-07-21T06:56:16.948Z,2.77
2017-07-21T06:58:43.635Z,2.10
2017-07-21T07:01:10.291Z,2.60
2017-07-21T07:03:36.946Z,2.53
2017-07-21T07:06:03.625Z,1.77
2017-07-21T07:08:30.302Z,2.63
2017-07-21T07:10:56.967Z,2.63
2017-07-21T07:13:23.644Z,2.03
2017-07-21T07:15:50.280Z,1.90
2017-07-21T07:18:16.938Z,1.90
2017-07-21T07:20:43.620Z,2.30
2017-07-21T07:23:10.284Z,2.20
2017-07-21T07:25:36.926Z,1.93
2017-07-21T07:28:03.619Z,2.17
2017-07-21T07:30:30.271Z,1.70
2017-07-21T07:32:56.934Z,1.70
2017-07-21T07:35:23.611Z,2.30
2017-07-21T07:37:50.263Z,1.40
2017-07-21T07:40:16.955Z,2.17
2017-07-21T07:42:43.660Z,1.47
2017-07-21T07:45:10.289Z,2.63
2017-07-21T07:47:36.923Z,2.00
2017-07-21T07:50:03.619Z,2.10
2017-07-21T07:52:30.267Z,2.27
2017-07-21T07:54:56.895Z,1.80
2017-07-21T07:57:23.569Z,2.17
2017-07-21T07:59:50.216Z,2.73
2017-07-21T08:02:16.861Z,1.90
2017-07-21T08:04:43.538Z,2.00
2017-07-21T08:07:10.194Z,1.60
2017-07-21T08:09:36.846Z,1.53
2017-07-21T08:12:03.526Z,1.47
2017-07-21T08:14:30.190Z,1.40
2017-07-21T08:16:56.852Z,1.70
2017-07-21T08:19:23.532Z,1.90
2017-07-21T08:21:50.186Z,1.70
2017-07-21T08:24:16.844Z,1.90
2017-07-21T08:26:43.504Z,1.90
2017-07-21T08:29:10.151Z,1.90
2017-07-21T08:31:37.066Z,2.03
2017-07-21T08:34:04.093Z,2.20
2017-07-21T08:36:30.956Z,2.30
2017-07-21T08:38:57.655Z,2.10
2017-07-21T08:41:24.465Z,2.13
2017-07-21T08:43:51.137Z,2.00
2017-07-21T08:46:17.945Z,2.00
2017-07-21T08:48:44.783Z,2.00
2017-07-21T08:51:16.264Z,2.17
2017-07-21T08:53:42.937Z,1.60
2017-07-21T08:56:09.585Z,1.90
2017-07-21T08:58:36.241Z,1.73
2017-07-21T09:01:02.922Z,1.70
2017-07-21T09:03:29.573Z,1.33
2017-07-21T09:05:56.245Z,2.10
2017-07-21T09:08:22.984Z,1.70
2017-07-21T09:10:49.638Z,1.80
2017-07-21T09:13:16.290Z,1.50
2017-07-21T09:15:42.992Z,1.90
2017-07-21T09:18:09.671Z,1.60
2017-07-21T09:20:36.328Z,1.40
2017-07-21T09:23:03.078Z,1.67
2017-07-21T09:25:29.857Z,1.70
2017-07-21T09:27:57.180Z,1.70
2017-07-21T09:30:25.024Z,1.70
2017-07-21T09:32:51.730Z,1.63
2017-07-21T09:35:18.881Z,1.50
2017-07-21T09:37:45.531Z,1.80
2017-07-21T09:40:12.199Z,1.57
2017-07-21T09:42:38.851Z,1.50
2017-07-21T09:45:05.557Z,1.60
2017-07-21T09:47:32.352Z,1.50
2017-07-21T09:49:58.996Z,1.70
2017-07-21T09:52:25.676Z,1.60
2017-07-21T09:54:52.346Z,1.50
2017-07-21T09:57:19.026Z,3.37
2017-07-21T09:59:46.792Z,1.60
2017-07-21T10:02:13.441Z,1.80
2017-07-21T10:04:41.705Z,1.60
2017-07-21T10:07:09.814Z,1.90
2017-07-21T10:09:37.066Z,1.60
2017-07-21T10:12:03.723Z,1.50
2017-07-21T10:14:30.443Z,1.50
2017-07-21T10:16:57.171Z,1.73
2017-07-21T10:19:23.828Z,1.70
2017-07-21T10:21:50.604Z,1.87
2017-07-21T10:24:17.322Z,1.73
2017-07-21T10:26:44.009Z,1.33
2017-07-21T10:29:10.723Z,1.87
2017-07-21T10:31:37.660Z,1.60
2017-07-21T10:34:04.332Z,1.70
2017-07-21T10:36:31.500Z,1.60
2017-07-21T10:38:58.142Z,1.40
2017-07-21T10:41:24.797Z,1.93
2017-07-21T10:43:51.470Z,1.70
2017-07-21T10:46:18.169Z,1.60
2017-07-21T10:48:44.884Z,1.70
2017-07-21T10:51:11.548Z,1.73
2017-07-21T10:53:38.199Z,1.50
2017-07-21T10:56:04.922Z,1.63
2017-07-21T10:58:31.572Z,2.00
2017-07-21T11:00:58.233Z,2.13
2017-07-21T11:03:24.907Z,1.83
2017-07-21T11:05:51.556Z,1.80
2017-07-21T11:08:18.217Z,1.93
2017-07-21T11:10:44.928Z,1.70
2017-07-21T11:13:11.584Z,2.00
2017-07-21T11:15:38.262Z,1.60
2017-07-21T11:18:04.947Z,2.20
2017-07-21T11:20:31.584Z,1.70
2017-07-21T11:22:58.257Z,2.60
2017-07-21T11:25:24.958Z,1.80
2017-07-21T11:27:51.614Z,1.70
2017-07-21T11:30:18.303Z,1.80
2017-07-21T11:32:44.990Z,2.00
2017-07-21T11:35:11.628Z,2.20
2017-07-21T11:37:38.313Z,1.50
2017-07-21T11:40:04.989Z,1.70
2017-07-21T11:42:31.658Z,1.70
2017-07-21T11:44:58.300Z,1.80
2017-07-21T11:47:24.976Z,2.30
2017-07-21T11:49:51.640Z,1.70
2017-07-21T11:52:18.304Z,1.70
2017-07-21T11:54:44.982Z,1.60
2017-07-21T11:57:11.656Z,1.70
2017-07-21T11:59:38.335Z,1.80
2017-07-21T12:02:05.003Z,1.90
2017-07-21T12:04:31.657Z,1.60
2017-07-21T12:06:58.323Z,1.47
2017-07-21T12:09:25.024Z,1.90
2017-07-21T12:11:51.701Z,2.10
2017-07-21T12:14:18.344Z,1.50
2017-07-21T12:16:44.988Z,2.10
2017-07-21T12:19:11.694Z,1.87
2017-07-21T12:21:38.363Z,1.63
2017-07-21T12:24:05.035Z,1.93
2017-07-21T12:26:31.707Z,1.63
2017-07-21T12:28:58.362Z,2.07
2017-07-21T12:31:25.012Z,2.10
2017-07-21T12:33:51.699Z,1.40
2017-07-21T12:36:18.387Z,1.73
2017-07-21T12:38:45.077Z,1.80
2017-07-21T12:41:11.754Z,1.63
2017-07-21T12:43:38.410Z,1.70
2017-07-21T12:46:05.066Z,1.80
2017-07-21T12:48:31.748Z,1.80
2017-07-21T12:50:58.408Z,1.53
2017-07-21T12:53:25.047Z,1.40
2017-07-21T12:55:51.746Z,1.60
2017-07-21T12:58:18.420Z,1.40
2017-07-21T13:00:45.099Z,1.70
2017-07-21T13:03:11.776Z,1.47
2017-07-21T13:05:38.416Z,1.70
2017-07-21T13:08:05.054Z,1.47
2017-07-21T13:10:31.738Z,1.67
2017-07-21T13:12:58.406Z,1.80
2017-07-21T13:15:25.099Z,1.60
2017-07-21T13:17:51.790Z,1.40
2017-07-21T13:20:18.473Z,1.90
2017-07-21T13:22:45.142Z,1.53
2017-07-21T13:25:11.830Z,1.63
2017-07-21T13:27:38.468Z,1.90
2017-07-21T13:30:05.156Z,2.10
2017-07-21T13:32:31.832Z,1.87
2017-07-21T13:34:59.061Z,1.90
2017-07-21T13:37:25.702Z,1.57
2017-07-21T13:39:52.372Z,1.90
2017-07-21T13:42:19.015Z,1.63
2017-07-21T13:44:45.675Z,1.60
2017-07-21T13:47:12.348Z,1.30
2017-07-21T13:49:39.007Z,1.50
2017-07-21T13:52:05.652Z,1.60
2017-07-21T13:54:32.327Z,1.40
2017-07-21T13:56:58.986Z,1.97
2017-07-21T13:59:25.636Z,2.00
2017-07-21T14:01:52.311Z,1.53
2017-07-21T14:04:18.979Z,1.67
2017-07-21T14:06:45.624Z,1.70
2017-07-21T14:09:12.291Z,1.40
2017-07-21T14:11:38.943Z,1.60
2017-07-21T14:14:05.575Z,1.77
2017-07-21T14:16:32.244Z,1.90
2017-07-21T14:18:58.892Z,1.40
2017-07-21T14:21:25.577Z,1.60
2017-07-21T14:23:52.294Z,1.83
2017-07-21T14:26:18.947Z,1.70
2017-07-21T14:28:45.592Z,1.73
2017-07-21T14:31:12.270Z,1.60
2017-07-21T14:33:39.159Z,2.20
2017-07-21T14:36:05.815Z,1.70
2017-07-21T14:38:32.454Z,1.53
2017-07-21T14:40:59.097Z,1.70
2017-07-21T14:43:25.778Z,1.70
2017-07-21T14:45:52.426Z,1.60
2017-07-21T14:48:19.086Z,2.03
2017-07-21T14:50:45.767Z,1.77
2017-07-21T14:53:12.403Z,1.60
2017-07-21T14:55:39.040Z,1.50
2017-07-21T14:58:05.742Z,1.50
2017-07-21T15:00:32.400Z,1.97
2017-07-21T15:02:59.061Z,1.70
2017-07-21T15:05:25.738Z,1.80
2017-07-21T15:07:52.404Z,1.67
2017-07-21T15:10:19.062Z,1.60
2017-07-21T15:12:45.750Z,1.40
2017-07-21T15:15:12.415Z,1.50
2017-07-21T15:17:39.043Z,1.60
2017-07-21T15:20:05.714Z,1.40
2017-07-21T15:22:32.353Z,1.50
2017-07-21T15:24:58.990Z,1.40
2017-07-21T15:27:25.668Z,1.90
2017-07-21T15:29:52.330Z,1.27
2017-07-21T15:32:18.975Z,1.50
2017-07-21T15:34:45.652Z,1.60
2017-07-21T15:37:12.287Z,1.87
2017-07-21T15:39:38.928Z,1.30
2017-07-21T15:42:05.626Z,1.50
2017-07-21T15:44:32.283Z,1.40
2017-07-21T15:46:58.923Z,1.50
2017-07-21T15:49:25.596Z,1.40
2017-07-21T15:51:52.239Z,1.80
2017-07-21T15:54:18.915Z,1.70
2017-07-21T15:56:45.594Z,1.53
2017-07-21T15:59:12.229Z,1.57
2017-07-21T16:01:38.872Z,1.40
2017-07-21T16:04:05.567Z,1.67
2017-07-21T16:06:32.249Z,1.33
2017-07-21T16:08:58.884Z,1.37
2017-07-21T16:11:26.404Z,1.43
2017-07-21T16:13:53.091Z,1.70
2017-07-21T16:16:19.747Z,1.60
2017-07-21T16:18:46.420Z,1.50
2017-07-21T16:21:13.077Z,1.40
2017-07-21T16:23:39.738Z,1.77
2017-07-21T16:26:06.422Z,1.80
2017-07-21T16:28:33.071Z,1.50
2017-07-21T16:30:59.720Z,1.80
2017-07-21T16:33:26.403Z,1.40
2017-07-21T16:35:53.055Z,1.17
2017-07-21T16:38:19.695Z,1.50
2017-07-21T16:40:46.366Z,1.93
2017-07-21T16:43:13.022Z,1.67
2017-07-21T16:45:39.710Z,1.60
2017-07-21T16:48:06.391Z,1.40
2017-07-21T16:50:33.035Z,2.00
2017-07-21T16:52:59.702Z,1.53
2017-07-21T16:55:26.402Z,2.10
2017-07-21T16:57:53.062Z,1.90
2017-07-21T17:00:19.714Z,1.70
2017-07-21T17:02:46.418Z,1.77
2017-07-21T17:05:13.095Z,2.03
2017-07-21T17:07:39.742Z,2.10
2017-07-21T17:10:06.470Z,1.80
2017-07-21T17:12:33.134Z,1.77
2017-07-21T17:14:59.786Z,1.97
2017-07-21T17:17:26.445Z,1.70
2017-07-21T17:19:53.123Z,1.77
2017-07-21T17:22:19.786Z,1.87
2017-07-21T17:24:46.455Z,2.10
2017-07-21T17:27:13.120Z,1.70
2017-07-21T17:29:39.755Z,2.10
2017-07-21T17:32:06.434Z,2.37
2017-07-21T17:34:33.123Z,2.17
2017-07-21T17:36:59.821Z,1.70
2017-07-21T17:39:26.550Z,1.97
2017-07-21T17:41:53.250Z,2.33
2017-07-21T17:44:19.880Z,2.13
2017-07-21T17:46:46.569Z,2.40
2017-07-21T17:49:13.231Z,2.10
2017-07-21T17:51:39.895Z,2.27
2017-07-21T17:54:07.152Z,1.73
2017-07-21T17:56:33.858Z,1.80
2017-07-21T17:59:00.503Z,1.80
2017-07-21T18:01:27.183Z,1.93
2017-07-21T18:03:53.841Z,1.57
2017-07-21T18:06:20.494Z,1.67
2017-07-21T18:08:47.171Z,1.53
2017-07-21T18:11:13.862Z,1.80
2017-07-21T18:13:40.499Z,1.70
2017-07-21T18:16:07.146Z,1.50
2017-07-21T18:18:33.807Z,2.33
2017-07-21T18:21:00.463Z,1.93
2017-07-21T18:23:27.099Z,1.60
2017-07-21T18:25:53.790Z,1.60
2017-07-21T18:28:20.424Z,1.97
2017-07-21T18:30:47.069Z,1.50
2017-07-21T18:33:13.744Z,1.60
2017-07-21T18:35:40.379Z,1.87
2017-07-21T18:38:07.046Z,1.93
2017-07-21T18:40:33.812Z,1.70
2017-07-21T18:43:00.445Z,2.00
2017-07-21T18:45:27.151Z,1.90
2017-07-21T18:47:53.795Z,2.00
2017-07-21T18:50:20.475Z,1.80
2017-07-21T18:52:47.181Z,1.63
2017-07-21T18:55:13.856Z,2.07
2017-07-21T18:57:40.523Z,2.00
2017-07-21T19:00:07.212Z,1.83
2017-07-21T19:02:33.879Z,1.67
2017-07-21T19:05:00.514Z,2.00
2017-07-21T19:07:27.218Z,1.93
2017-07-21T19:09:53.874Z,2.43
2017-07-21T19:12:20.517Z,2.03
2017-07-21T19:14:47.265Z,2.07
2017-07-21T19:17:13.935Z,1.90
2017-07-21T19:19:40.589Z,2.13
2017-07-21T19:22:07.311Z,2.30
2017-07-21T19:24:33.970Z,2.30
2017-07-21T19:27:00.650Z,2.00
2017-07-21T19:29:27.307Z,2.30
2017-07-21T19:31:53.966Z,2.17
2017-07-21T19:34:20.634Z,2.63
2017-07-21T19:36:47.330Z,2.00
2017-07-21T19:39:13.995Z,2.50
2017-07-21T19:41:40.660Z,1.90
2017-07-21T19:44:07.337Z,2.00
2017-07-21T19:46:33.998Z,2.00
2017-07-21T19:49:00.658Z,1.90
2017-07-21T19:51:27.338Z,1.97
2017-07-21T19:53:54.013Z,2.37
2017-07-21T19:56:20.645Z,2.50
2017-07-21T19:58:47.280Z,2.00
2017-07-21T20:01:13.935Z,1.87
2017-07-21T20:03:40.635Z,1.80
2017-07-21T20:06:07.287Z,2.30
2017-07-21T20:08:33.970Z,2.00
2017-07-21T20:11:00.616Z,2.20
2017-07-21T20:13:29.495Z,2.00
2017-07-21T20:15:56.271Z,2.23
2017-07-21T20:18:22.976Z,2.00
2017-07-21T20:20:49.664Z,2.20
2017-07-21T20:23:16.313Z,1.90
2017-07-21T20:25:42.982Z,2.13
2017-07-21T20:28:09.624Z,2.10
2017-07-21T20:30:36.257Z,1.90
2017-07-21T20:33:02.951Z,1.93
2017-07-21T20:35:29.618Z,1.90
2017-07-21T20:37:56.264Z,2.20
2017-07-21T20:40:22.972Z,2.37
2017-07-21T20:42:49.622Z,2.17
2017-07-21T20:45:16.287Z,2.60
2017-07-21T20:47:42.987Z,2.30
2017-07-21T20:50:09.687Z,2.20
2017-07-21T20:52:36.356Z,1.90
2017-07-21T20:55:03.014Z,2.00
2017-07-21T20:57:29.710Z,2.43
2017-07-21T20:59:56.412Z,1.87
2017-07-21T21:02:23.083Z,2.00
2017-07-21T21:04:49.736Z,1.87
2017-07-21T21:07:16.385Z,2.50
2017-07-21T21:09:43.054Z,2.03
2017-07-21T21:12:09.722Z,2.00
2017-07-21T21:14:36.367Z,2.20
2017-07-21T21:17:03.036Z,2.13
2017-07-21T21:19:29.693Z,2.20
2017-07-21T21:21:56.347Z,2.00
2017-07-21T21:24:23.027Z,2.27
2017-07-21T21:26:49.726Z,1.67
2017-07-21T21:29:16.383Z,1.97
2017-07-21T21:31:43.062Z,1.90
2017-07-21T21:34:09.750Z,2.00
2017-07-21T21:36:36.388Z,2.10
2017-07-21T21:39:03.038Z,2.03
2017-07-21T21:41:29.707Z,2.23
2017-07-21T21:43:56.343Z,2.00
2017-07-21T21:46:22.997Z,1.70
2017-07-21T21:48:49.703Z,2.60
2017-07-21T21:51:16.335Z,1.93
2017-07-21T21:53:43.010Z,1.80
2017-07-21T21:56:09.670Z,2.37
2017-07-21T21:58:36.327Z,1.93
2017-07-21T22:01:03.031Z,2.70
2017-07-21T22:03:29.686Z,2.20
2017-07-21T22:05:56.349Z,1.80
2017-07-21T22:08:23.055Z,2.20
2017-07-21T22:10:49.723Z,2.00
2017-07-21T22:13:16.397Z,2.80
2017-07-21T22:15:48.818Z,2.50
2017-07-21T22:18:15.474Z,2.00
2017-07-21T22:20:42.165Z,2.53
2017-07-21T22:23:08.815Z,2.27
2017-07-21T22:25:35.463Z,2.10
2017-07-21T22:28:02.126Z,2.30
2017-07-21T22:30:28.814Z,2.57
2017-07-21T22:32:55.479Z,1.73
2017-07-21T22:35:22.143Z,2.10
2017-07-21T22:37:48.842Z,2.50
2017-07-21T22:40:15.512Z,1.80
2017-07-21T22:42:42.165Z,2.50
2017-07-21T22:45:08.830Z,2.20
2017-07-21T22:47:35.489Z,2.30
2017-07-21T22:50:02.185Z,2.10
2017-07-21T22:52:28.862Z,2.67
2017-07-21T22:54:55.582Z,2.20
2017-07-21T22:57:22.238Z,2.40
2017-07-21T22:59:48.920Z,2.10
2017-07-21T23:02:15.546Z,2.27
2017-07-21T23:04:42.212Z,2.63
2017-07-21T23:07:08.880Z,2.30
2017-07-21T23:09:35.593Z,2.37
2017-07-21T23:12:02.257Z,2.10
2017-07-21T23:14:28.905Z,2.20
2017-07-21T23:16:55.562Z,2.30
2017-07-21T23:19:22.231Z,2.83
2017-07-21T23:21:48.869Z,2.70
2017-07-21T23:24:15.540Z,2.10
2017-07-21T23:26:42.203Z,2.37
2017-07-21T23:29:08.846Z,2.90
2017-07-21T23:31:35.522Z,2.43
2017-07-21T23:34:02.179Z,2.10
2017-07-21T23:36:28.862Z,2.23
2017-07-21T23:38:55.519Z,2.57
2017-07-21T23:41:22.164Z,2.00
2017-07-21T23:43:48.815Z,2.30
2017-07-21T23:46:15.497Z,1.70
2017-07-21T23:48:42.158Z,3.03
2017-07-21T23:51:08.818Z,2.53
2017-07-21T23:53:35.512Z,1.90
2017-07-21T23:56:02.148Z,2.23
2017-07-21T23:58:28.788Z,2.00
